Smithville, MS

3:32 AM CDT on September 20, 2014 (GMT -0500)
Amory | Change Station
CLOSE
Current Station
Personal Weather Station
Location: Amory, MS
Elevation: 233 ft
Nearby Weather Stations

Elev 233 ft 33.98 °N, 88.49 °W | Updated 13 seconds ago

Clear
Clear
71.8 °F
Feels Like 71 °F
N
2.0
Wind Variable Wind from ESE
Gusts 5.0 mph

Today
High -- | Low -- °F
--% Chance of Precip.
Yesterday
High -- | Low -- °F
Precip. -- in
6:40 AM 6:53 PM
Waning Crescent, 13% visible
Pressure 30.04 in
Visibility 8.0 miles
Clouds Clear
Heat Index 71 °F
Dew Point 67 °F
Humidity 84%
Rainfall 0.00 in
Snow Depth Not available.
UV 0 out of 12
Pollen 8.00 out of 12
Air Quality Not available.
Flu Activity Not available.
METAR KM40 200815Z AUTO 00000KT 8SM CLR 21/12 A3004 RMK AO2

More Conditions Fewer Conditions

Pressure 30.04 in
Visibility 8.0 miles
Clouds Clear
Heat Index 71 °F
Dew Point 67 °F
Humidity 84%
Rainfall 0.00 in
Snow Depth Not available.
UV 0 out of 12
Pollen 8.00 out of 12
Air Quality Not available.
Flu Activity Not available.
METAR KM40 200815Z AUTO 00000KT 8SM CLR 21/12 A3004 RMK AO2

More Conditions Fewer Conditions

10-Day Weather Forecast

Almanac

Astronomy

Sep. 20, 2014 Rise Set
Actual Time 6:40 AM CDT 6:53 PM CDT
Civil Twilight 6:15 AM CDT 7:18 PM CDT
Nautical Twilight 5:45 AM CDT 7:47 PM CDT
Astronomical Twilight 5:16 AM CDT 8:16 PM CDT
Moon 3:26 AM CDT 4:50 PM CDT
Length of Visible Light 13h 02m
Length of Day
12h 12m
Tomorrow will be 2m 7s shorter.
Waning Crescent, 13% of the Moon is Illuminated
Today
Waning Crescent
Sep 24
New
Oct 1
First Quarter
Oct 8
Full
Oct 15
Last Quarter

Today's Extremes

State Highs State Lows

Community

WunderPhotos

Upload Photos

1,754,793 photos uploaded!

WunderBlogs® & News

Nearby

Snow Depth

Station Depth Elevation
No new snow has been reported.

Earthquake Activity

City Distance Mag. Time & Date
No recent earthquake activity has been reported nearby.
Minimum magnitude displayed is 2.5.

Coastal Water Temperatures

Place Temperature
No Stations Reporting

Nearby Weather Stations